»·PEaware :: N314P KRNM-KAVX

N314P :: KRNM-KAVX

FLIGHT INFORMATION

Flight Status: Arrived
Operator: Privately registered:
United States
More flights under this callsign
Pilot: Brendan R. (7498)
Aircraft: CESSNA 182 SKYLANE
(C182)
More flights by this aircraft type
Origin: KRNM Ramona
United States
Destination: KAVX Catalina
United States
More flights between these airports :: More routes between these airports
Route: +ROBNN V208 OCN V458 SXC KAVX
File this flight plan on PilotEdge
Remarks:
Altitude:
(Current/Filed)
6,000ft
Speed:
(Current/Filed)
125kts
Departed: 07-Jan-18 05:51 PM
Arrived: 07-Jan-18 06:33 PM
Distance/Time
Traveled:
78nm/0:41
Distance/Time
To Go:
Arrived

Flight Plot

Page will automatically refresh every two minutes.

Flight plan parsing failed; only flown route is shown


Map Options




Map Legend


Flown Route
Filed Route
Departure Airport
Arrival Airport
Navaid (VOR, NDB)
Fix

Horizontal Profiles

Position Reports

Time Latitude Longitude Heading Altitude Ground
Speed
07-Jan-18 17:03 33.040645 -116.910875 204 1396ft 0kts
07-Jan-18 17:04 33.040645 -116.910875 204 1396ft 0kts
07-Jan-18 17:05 33.040645 -116.910875 204 1396ft 0kts
07-Jan-18 17:06 33.040645 -116.910875 204 1396ft 0kts
07-Jan-18 17:07 33.040645 -116.910875 204 1396ft 0kts
07-Jan-18 17:08 33.040645 -116.910875 204 1396ft 0kts
07-Jan-18 17:09 33.040645 -116.910875 204 1396ft 0kts
07-Jan-18 17:10 33.040645 -116.910875 204 1396ft 0kts
07-Jan-18 17:11 33.040645 -116.910875 204 1396ft 0kts
07-Jan-18 17:12 33.040645 -116.910875 204 1396ft 0kts
07-Jan-18 17:13 33.040645 -116.910875 204 1396ft 0kts
07-Jan-18 17:14 33.040644 -116.910875 204 1396ft 0kts
07-Jan-18 17:15 33.040642 -116.910876 204 1396ft 0kts
07-Jan-18 17:16 33.040641 -116.910877 204 1396ft 0kts
07-Jan-18 17:17 33.040639 -116.910878 204 1396ft 0kts
07-Jan-18 17:18 33.040637 -116.910879 204 1396ft 0kts
07-Jan-18 17:19 33.040635 -116.910880 204 1396ft 0kts
07-Jan-18 17:20 33.040634 -116.910881 204 1396ft 0kts
07-Jan-18 17:21 33.040633 -116.910882 204 1396ft 0kts
07-Jan-18 17:22 33.040631 -116.910882 204 1396ft 0kts
07-Jan-18 17:23 33.040629 -116.910883 204 1396ft 0kts
07-Jan-18 17:24 33.040628 -116.910884 204 1396ft 0kts
07-Jan-18 17:25 33.040626 -116.910885 204 1396ft 0kts
07-Jan-18 17:26 33.040624 -116.910886 204 1396ft 0kts
07-Jan-18 17:27 33.040623 -116.910887 204 1396ft 0kts
07-Jan-18 17:28 33.040621 -116.910888 204 1396ft 0kts
07-Jan-18 17:29 33.039736 -116.911032 183 1396ft 7kts
07-Jan-18 17:30 33.039504 -116.911023 181 1396ft 0kts
07-Jan-18 17:31 33.039501 -116.911023 182 1396ft 0kts
07-Jan-18 17:32 33.039498 -116.911023 183 1396ft 0kts
07-Jan-18 17:33 33.039495 -116.911023 184 1396ft 0kts
07-Jan-18 17:34 33.039492 -116.911024 185 1396ft 0kts
07-Jan-18 17:35 33.039489 -116.911024 186 1396ft 0kts
07-Jan-18 17:36 33.039486 -116.911025 187 1396ft 0kts
07-Jan-18 17:37 33.039482 -116.911025 188 1396ft 0kts
07-Jan-18 17:38 33.039480 -116.911026 188 1396ft 0kts
07-Jan-18 17:39 33.039477 -116.911026 188 1396ft 0kts
07-Jan-18 17:40 33.039442 -116.911032 188 1396ft 2kts
07-Jan-18 17:41 33.038963 -116.909427 97 1396ft 7kts
07-Jan-18 17:42 33.038519 -116.907223 182 1396ft 0kts
07-Jan-18 17:43 33.038516 -116.907223 182 1396ft 0kts
07-Jan-18 17:44 33.038513 -116.907224 182 1396ft 0kts
07-Jan-18 17:45 33.038511 -116.907224 183 1396ft 0kts
07-Jan-18 17:46 33.038508 -116.907224 183 1396ft 0kts
07-Jan-18 17:47 33.038505 -116.907224 183 1396ft 0kts
07-Jan-18 17:48 33.038503 -116.907224 183 1396ft 0kts
07-Jan-18 17:49 33.038500 -116.907225 184 1396ft 0kts
07-Jan-18 17:50 33.038497 -116.907225 184 1396ft 0kts
07-Jan-18 17:51 33.038495 -116.907225 184 1396ft 0kts
07-Jan-18 17:52 33.038493 -116.907225 184 1396ft 0kts
07-Jan-18 17:53 33.038491 -116.907225 184 1396ft 0kts
07-Jan-18 17:54 33.038489 -116.907226 184 1396ft 0kts
07-Jan-18 17:55 33.038487 -116.907226 184 1396ft 0kts
07-Jan-18 17:56 33.038317 -116.907253 188 1396ft 8kts
07-Jan-18 17:57 33.040288 -116.921689 280 1471ft 88kts
07-Jan-18 17:58 33.041272 -116.950922 279 2163ft 93kts
07-Jan-18 17:59 33.049227 -116.977218 300 2894ft 86kts
07-Jan-18 18:00 33.058057 -117.003204 291 3555ft 83kts
07-Jan-18 18:01 33.074567 -117.022098 341 4080ft 87kts
07-Jan-18 18:02 33.095055 -117.033083 331 4675ft 79kts
07-Jan-18 18:03 33.115996 -117.045892 330 5037ft 98kts
07-Jan-18 18:04 33.145118 -117.063789 333 4995ft 128kts
07-Jan-18 18:08 33.211600 -117.158400 0 5904ft 0kts
07-Jan-18 18:09 33.215008 -117.187364 277 5978ft 124kts
07-Jan-18 18:10 33.220015 -117.230838 277 5967ft 135kts
07-Jan-18 18:11 33.225100 -117.275773 277 5972ft 137kts
07-Jan-18 18:12 33.230192 -117.321046 277 5970ft 138kts
07-Jan-18 18:17 33.253777 -117.525343 277 5986ft 138kts
07-Jan-18 18:18 33.257317 -117.554546 277 5988ft 137kts
07-Jan-18 18:19 33.263420 -117.599823 280 5990ft 137kts
07-Jan-18 18:20 33.270304 -117.644790 279 5991ft 137kts
07-Jan-18 18:21 33.277129 -117.689928 279 5992ft 137kts
07-Jan-18 18:22 33.283901 -117.734931 279 5995ft 137kts
07-Jan-18 18:23 33.290245 -117.780063 278 6003ft 138kts
07-Jan-18 18:24 33.296373 -117.825578 278 6006ft 138kts
07-Jan-18 18:25 33.302479 -117.870985 278 6008ft 138kts
07-Jan-18 18:26 33.308362 -117.914823 278 5996ft 139kts
07-Jan-18 18:27 33.314998 -117.961228 284 5884ft 144kts
07-Jan-18 18:28 33.326640 -118.007290 288 5731ft 145kts
07-Jan-18 18:29 33.339692 -118.054094 285 5447ft 149kts
07-Jan-18 18:30 33.347351 -118.101980 273 5241ft 147kts
07-Jan-18 18:31 33.346200 -118.149797 270 5100ft 145kts
07-Jan-18 18:32 33.352274 -118.194442 281 5094ft 139kts
07-Jan-18 18:33 33.363905 -118.238275 290 5060ft 138kts
07-Jan-18 18:34 33.383471 -118.277938 303 5033ft 137kts
07-Jan-18 18:35 33.405057 -118.314994 310 4860ft 123kts
07-Jan-18 18:36 33.422744 -118.345831 293 4205ft 105kts
07-Jan-18 18:37 33.423864 -118.379649 255 3312ft 84kts
07-Jan-18 18:38 33.411809 -118.404401 236 1980ft 87kts
07-Jan-18 18:39 33.403032 -118.419116 233 1605ft 16kts
07-Jan-18 18:40 33.403595 -118.417435 55 1605ft 16kts
07-Jan-18 18:41 33.403475 -118.415380 62 1605ft 0kts
07-Jan-18 18:42 33.403475 -118.415380 62 1605ft 0kts
07-Jan-18 18:43 33.403475 -118.415380 62 1605ft 0kts

Navigation Log

Ident Type
Flight plan parsing failed, navigation log unavailable